createdAt,value
2024-01-16T00:03:03.193Z,93908.81
2024-01-16T00:06:08.556Z,93923.59
2024-01-16T00:09:12.587Z,93925.13
2024-01-16T00:12:16.812Z,93923.25
2024-01-16T00:15:20.626Z,93932.09
2024-01-16T00:18:24.951Z,93948.09
2024-01-16T00:21:28.885Z,93949.13
2024-01-16T00:24:32.788Z,93954.22
2024-01-16T00:27:38.075Z,93964.00
2024-01-16T00:30:43.215Z,93980.91
2024-01-16T00:33:47.531Z,93984.28
2024-01-16T00:36:51.522Z,93981.56
2024-01-16T00:39:55.331Z,93972.97
2024-01-16T00:42:58.945Z,93981.47
2024-01-16T00:46:03.368Z,93979.81
2024-01-16T00:49:06.473Z,93978.16
2024-01-16T00:52:10.227Z,93977.84
2024-01-16T00:55:13.878Z,93967.50
2024-01-16T00:58:18.222Z,93963.63
2024-01-16T01:01:22.263Z,93959.16
2024-01-16T01:04:25.861Z,93972.91
2024-01-16T01:07:28.879Z,93971.44
2024-01-16T01:10:32.451Z,93981.69
2024-01-16T01:13:36.051Z,93994.03
2024-01-16T01:16:40.539Z,93986.34
2024-01-16T01:19:44.231Z,93989.41
2024-01-16T01:22:48.717Z,93985.88
2024-01-16T01:25:53.475Z,93984.38
2024-01-16T01:28:56.979Z,93992.72
2024-01-16T01:32:00.718Z,93992.50
2024-01-16T01:35:09.413Z,93986.81
2024-01-16T01:38:12.572Z,93989.59
2024-01-16T01:41:16.050Z,93968.34
2024-01-16T01:44:19.200Z,93991.53
2024-01-16T01:47:23.469Z,94006.44
2024-01-16T01:50:26.662Z,94008.72
2024-01-16T01:53:33.467Z,94014.13
2024-01-16T01:56:37.532Z,94029.38
2024-01-16T01:59:41.318Z,94040.69
2024-01-16T02:02:45.525Z,94040.22
2024-01-16T02:05:51.542Z,94042.59
2024-01-16T02:08:55.511Z,94039.19
2024-01-16T02:15:25.950Z,94030.63
2024-01-16T02:18:29.019Z,94037.31
2024-01-16T02:21:51.757Z,94040.31
2024-01-16T02:24:55.233Z,94052.72
2024-01-16T02:27:59.185Z,94051.66
2024-01-16T02:31:02.717Z,94043.34
2024-01-16T02:34:08.697Z,94033.88
2024-01-16T02:37:11.979Z,94030.44
2024-01-16T02:40:15.141Z,94038.75
2024-01-16T02:43:18.114Z,94041.66
2024-01-16T02:46:21.255Z,94048.84
2024-01-16T02:49:24.329Z,94051.47
2024-01-16T02:52:28.198Z,94061.00
2024-01-16T02:55:31.066Z,94053.72
2024-01-16T02:58:34.844Z,94045.53
2024-01-16T03:01:39.043Z,94049.63
2024-01-16T03:04:42.984Z,94069.75
2024-01-16T03:07:46.641Z,94062.09
2024-01-16T03:10:50.296Z,94049.75
2024-01-16T03:13:54.895Z,94044.09
2024-01-16T03:16:58.845Z,94040.22
2024-01-16T03:20:02.103Z,94034.34
2024-01-16T03:23:05.960Z,94025.31
2024-01-16T03:26:09.319Z,94031.69
2024-01-16T03:29:12.790Z,94027.09
2024-01-16T03:32:16.568Z,94033.34
2024-01-16T03:35:20.356Z,94028.09
2024-01-16T03:38:24.661Z,94037.63
2024-01-16T03:41:27.579Z,94034.72
2024-01-16T03:44:31.039Z,94032.28
2024-01-16T03:47:34.348Z,94022.97
2024-01-16T03:50:38.100Z,94023.25
2024-01-16T03:53:41.624Z,94009.91
2024-01-16T03:56:45.370Z,94012.38
2024-01-16T03:59:49.509Z,94004.03
2024-01-16T04:02:52.651Z,93991.06
2024-01-16T04:05:57.141Z,94008.13
2024-01-16T04:09:00.883Z,93995.19
2024-01-16T04:12:31.740Z,93997.47
2024-01-16T04:15:34.849Z,94003.06
2024-01-16T04:18:41.997Z,94004.44
2024-01-16T04:21:45.768Z,94009.00
2024-01-16T04:24:49.333Z,94012.81
2024-01-16T04:27:52.449Z,94010.06
2024-01-16T04:30:55.968Z,94009.59
2024-01-16T04:33:59.128Z,94009.84
2024-01-16T04:37:02.334Z,94009.78
2024-01-16T04:40:07.859Z,94012.25
2024-01-16T04:43:11.613Z,94006.28
2024-01-16T04:46:17.132Z,94000.53
2024-01-16T04:49:20.089Z,94000.44
2024-01-16T04:52:23.505Z,93999.59
2024-01-16T04:55:30.462Z,94011.25
2024-01-16T04:58:33.531Z,94010.75
2024-01-16T05:01:37.917Z,94001.97
2024-01-16T05:04:41.993Z,93994.69
2024-01-16T05:07:46.480Z,93992.44
2024-01-16T05:10:50.564Z,94002.72
2024-01-16T05:13:59.352Z,93986.59
2024-01-16T05:17:04.682Z,93987.97
2024-01-16T05:20:09.012Z,93986.03
2024-01-16T05:23:13.230Z,93989.25
2024-01-16T05:26:16.971Z,93978.47
2024-01-16T05:29:21.244Z,93984.66
2024-01-16T05:32:26.660Z,93980.91
2024-01-16T05:35:30.744Z,93984.31
2024-01-16T05:38:33.962Z,93982.03
2024-01-16T05:41:37.394Z,93984.97
2024-01-16T05:44:41.666Z,93992.31
2024-01-16T05:47:45.360Z,93991.19
2024-01-16T05:50:49.781Z,93994.38
2024-01-16T05:53:53.652Z,93980.81
2024-01-16T05:56:57.494Z,93986.41
2024-01-16T06:00:04.997Z,93973.97
2024-01-16T06:03:08.253Z,93977.13
2024-01-16T06:06:12.442Z,93972.22
2024-01-16T06:09:16.102Z,93965.34
2024-01-16T06:12:20.659Z,93965.19
2024-01-16T06:15:25.094Z,93961.59
2024-01-16T06:18:29.144Z,93967.06
2024-01-16T06:21:32.520Z,93960.88
2024-01-16T06:24:38.849Z,93961.78
2024-01-16T06:27:42.898Z,93958.25
2024-01-16T06:30:47.334Z,93969.00
2024-01-16T06:33:50.573Z,93971.41
2024-01-16T06:36:54.173Z,93972.72
2024-01-16T06:39:57.851Z,93972.81
2024-01-16T06:43:02.048Z,93984.03
2024-01-16T06:46:07.385Z,93984.31
2024-01-16T06:49:11.535Z,93975.72
2024-01-16T06:52:14.753Z,93992.16
2024-01-16T06:55:18.926Z,94006.44
2024-01-16T06:58:22.711Z,93994.53
2024-01-16T07:01:26.939Z,94004.47
2024-01-16T07:04:29.975Z,94007.31
2024-01-16T07:07:33.796Z,94009.84
2024-01-16T07:10:38.009Z,94021.09
2024-01-16T07:13:42.576Z,94027.78
2024-01-16T07:16:46.172Z,94022.81
2024-01-16T07:19:50.342Z,94023.56
2024-01-16T07:22:54.016Z,94015.25
2024-01-16T07:25:58.672Z,94019.84
2024-01-16T07:29:02.816Z,94020.41
2024-01-16T07:32:07.237Z,94019.16
2024-01-16T07:35:10.367Z,94013.66
2024-01-16T07:38:14.483Z,94030.28
2024-01-16T07:41:18.165Z,94020.00
2024-01-16T07:44:22.185Z,94024.66
2024-01-16T07:47:26.006Z,94025.28
2024-01-16T07:50:29.532Z,94024.44
2024-01-16T07:53:32.612Z,94013.25
2024-01-16T07:56:40.121Z,94034.66
2024-01-16T07:59:44.277Z,94035.28
2024-01-16T08:02:47.825Z,94033.19
2024-01-16T08:05:50.977Z,94037.84
2024-01-16T08:09:19.580Z,94034.13
2024-01-16T08:12:22.760Z,94030.31
2024-01-16T08:15:26.259Z,94036.47
2024-01-16T08:18:30.265Z,94036.47
2024-01-16T08:21:33.527Z,94035.94
2024-01-16T08:24:38.004Z,94043.06
2024-01-16T08:27:41.822Z,94043.22
2024-01-16T08:30:45.525Z,94043.44
2024-01-16T08:33:51.398Z,94058.34
2024-01-16T08:36:58.531Z,94051.13
2024-01-16T08:40:02.141Z,94049.00
2024-01-16T08:43:05.387Z,94050.13
2024-01-16T08:46:08.929Z,94061.06
2024-01-16T08:49:14.212Z,94055.00
2024-01-16T08:52:19.251Z,94061.63
2024-01-16T08:55:22.985Z,94064.78
2024-01-16T08:58:26.961Z,94084.19
2024-01-16T09:01:30.684Z,94088.31
2024-01-16T09:04:35.286Z,94094.97
2024-01-16T09:07:39.039Z,94092.88
2024-01-16T09:10:42.871Z,94106.47
2024-01-16T09:13:46.510Z,94094.72
2024-01-16T09:16:50.042Z,94107.03
2024-01-16T09:19:53.154Z,94115.38
2024-01-16T09:22:56.643Z,94111.09
2024-01-16T09:26:00.234Z,94119.09
2024-01-16T09:29:04.317Z,94126.50
2024-01-16T09:32:07.749Z,94122.13
2024-01-16T09:35:12.367Z,94123.16
2024-01-16T09:38:16.259Z,94128.31
2024-01-16T09:41:19.389Z,94131.41
2024-01-16T09:44:23.379Z,94141.47
2024-01-16T09:47:27.571Z,94144.34
2024-01-16T09:50:31.338Z,94147.84
2024-01-16T09:53:35.349Z,94159.84
2024-01-16T09:56:45.176Z,94158.91
2024-01-16T09:59:50.352Z,94166.06
2024-01-16T10:02:54.966Z,94158.03
2024-01-16T10:06:02.405Z,94174.19
2024-01-16T10:09:06.291Z,94176.94
2024-01-16T10:12:12.267Z,94189.91
2024-01-16T10:15:17.849Z,94188.88
2024-01-16T10:18:34.715Z,94194.72
2024-01-16T10:21:40.020Z,94197.50
2024-01-16T10:24:43.478Z,94201.56
2024-01-16T10:27:47.906Z,94215.78
2024-01-16T10:31:04.680Z,94215.22
2024-01-16T10:34:22.447Z,94217.59
2024-01-16T10:37:25.507Z,94220.78
2024-01-16T10:40:29.997Z,94226.75
2024-01-16T10:43:34.532Z,94233.31
2024-01-16T10:46:40.955Z,94230.06
2024-01-16T10:49:46.610Z,94233.28
2024-01-16T10:52:50.734Z,94243.97
2024-01-16T10:55:54.628Z,94247.97
2024-01-16T10:59:14.322Z,94244.75
2024-01-16T11:02:22.384Z,94256.78
2024-01-16T11:05:27.323Z,94267.72
2024-01-16T11:08:34.289Z,94258.41
2024-01-16T11:11:40.111Z,94267.88
2024-01-16T11:14:43.917Z,94276.25
2024-01-16T11:17:48.154Z,94283.03
2024-01-16T11:21:03.288Z,94292.44
2024-01-16T11:24:10.470Z,94286.97
2024-01-16T11:27:25.320Z,94290.00
2024-01-16T11:30:35.715Z,94293.91
2024-01-16T11:33:39.436Z,94304.31
2024-01-16T11:36:53.607Z,94296.03
2024-01-16T11:40:21.554Z,94322.00
2024-01-16T11:43:41.142Z,94310.59
2024-01-16T11:47:04.481Z,94313.94
2024-01-16T11:50:13.355Z,94319.50
2024-01-16T11:57:14.387Z,94330.66
2024-01-16T12:00:21.515Z,94331.84
2024-01-16T12:03:34.061Z,94334.09
2024-01-16T12:06:39.991Z,94335.09
2024-01-16T12:09:44.136Z,94338.13
2024-01-16T12:12:48.964Z,94346.66
2024-01-16T12:16:06.547Z,94345.81
2024-01-16T12:19:10.870Z,94354.63
2024-01-16T12:22:16.545Z,94359.25
2024-01-16T12:25:23.433Z,94360.00
2024-01-16T12:28:32.867Z,94374.56
2024-01-16T12:31:37.061Z,94376.31
2024-01-16T12:34:50.829Z,94368.53
2024-01-16T12:38:04.093Z,94384.13
2024-01-16T12:41:11.760Z,94387.53
2024-01-16T12:44:17.477Z,94394.59
2024-01-16T12:47:23.847Z,94391.28
2024-01-16T12:50:31.190Z,94400.59
2024-01-16T12:53:41.826Z,94392.25
2024-01-16T12:56:45.267Z,94401.69
2024-01-16T12:59:50.896Z,94405.22
2024-01-16T13:02:57.295Z,94414.38
2024-01-16T13:06:02.839Z,94403.69
2024-01-16T13:09:18.031Z,94402.72
2024-01-16T13:12:23.140Z,94414.72
2024-01-16T13:15:26.766Z,94423.47
2024-01-16T13:18:32.005Z,94425.06
2024-01-16T13:21:35.497Z,94436.91
2024-01-16T13:24:39.528Z,94440.75
2024-01-16T13:27:42.486Z,94437.72
2024-01-16T13:30:48.010Z,94445.28
2024-01-16T13:33:51.944Z,94446.34
2024-01-16T13:37:09.291Z,94449.88
2024-01-16T13:40:22.639Z,94456.00
2024-01-16T13:43:28.185Z,94456.38
2024-01-16T13:46:49.121Z,94443.00
2024-01-16T13:49:56.075Z,94460.44
2024-01-16T13:52:59.949Z,94451.25
2024-01-16T13:56:03.785Z,94459.34
2024-01-16T13:59:07.264Z,94468.72
2024-01-16T14:02:11.443Z,94483.97
2024-01-16T14:05:21.352Z,94488.59
2024-01-16T14:08:24.592Z,94493.63
2024-01-16T14:11:28.557Z,94500.44
2024-01-16T14:14:33.215Z,94500.72
2024-01-16T14:17:37.581Z,94496.03
2024-01-16T14:20:41.482Z,94498.78
2024-01-16T14:23:46.008Z,94499.63
2024-01-16T14:26:49.430Z,94498.22
2024-01-16T14:29:52.960Z,94504.47
2024-01-16T14:32:56.974Z,94511.75
2024-01-16T14:36:02.519Z,94505.50
2024-01-16T14:39:07.220Z,94516.25
2024-01-16T14:42:11.655Z,94513.22
2024-01-16T14:45:17.598Z,94525.75
2024-01-16T14:48:22.069Z,94530.56
2024-01-16T14:51:27.211Z,94538.09
2024-01-16T14:54:30.527Z,94544.84
2024-01-16T14:57:39.720Z,94540.88
2024-01-16T15:00:47.249Z,94552.63
2024-01-16T15:03:51.946Z,94560.22
2024-01-16T15:06:57.399Z,94553.28
2024-01-16T15:10:01.851Z,94557.75
2024-01-16T15:13:06.239Z,94560.44
2024-01-16T15:16:09.501Z,94568.94
2024-01-16T15:19:13.148Z,94570.00
2024-01-16T15:22:17.373Z,94567.53
2024-01-16T15:25:23.207Z,94566.06
2024-01-16T15:28:26.153Z,94565.56
2024-01-16T15:31:29.127Z,94568.28
2024-01-16T15:34:32.432Z,94571.09
2024-01-16T15:37:36.861Z,94576.66
2024-01-16T15:40:40.842Z,94572.97
2024-01-16T15:43:44.829Z,94577.44
2024-01-16T15:47:02.378Z,94575.72
2024-01-16T15:50:07.304Z,94566.47
2024-01-16T15:53:10.813Z,94581.19
2024-01-16T15:56:15.605Z,94575.22
2024-01-16T15:59:19.767Z,94575.06
2024-01-16T16:02:23.417Z,94570.56
2024-01-16T16:05:27.765Z,94562.56
2024-01-16T16:08:31.531Z,94579.72
2024-01-16T16:11:46.468Z,94567.97
2024-01-16T16:14:50.163Z,94582.41
2024-01-16T16:17:57.676Z,94588.41
2024-01-16T16:21:03.695Z,94596.16
2024-01-16T16:24:08.977Z,94594.25
2024-01-16T16:27:26.773Z,94612.47
2024-01-16T16:30:31.410Z,94617.69
2024-01-16T16:33:35.245Z,94608.22
2024-01-16T16:36:43.352Z,94618.94
2024-01-16T16:39:46.986Z,94608.97
2024-01-16T16:42:51.199Z,94608.25
2024-01-16T16:45:55.208Z,94623.72
2024-01-16T16:49:00.148Z,94605.81
2024-01-16T16:52:05.278Z,94625.75
2024-01-16T16:55:09.507Z,94621.75
2024-01-16T16:58:13.997Z,94629.44
2024-01-16T17:01:19.580Z,94627.72
2024-01-16T17:04:24.310Z,94617.53
2024-01-16T17:07:28.444Z,94622.28
2024-01-16T17:10:32.609Z,94621.28
2024-01-16T17:13:37.054Z,94619.78
2024-01-16T17:16:41.902Z,94630.50
2024-01-16T17:19:45.594Z,94630.28
2024-01-16T17:22:49.416Z,94640.50
2024-01-16T17:25:56.978Z,94650.44
2024-01-16T17:29:02.600Z,94653.69
2024-01-16T17:32:07.666Z,94653.97
2024-01-16T17:35:12.557Z,94662.41
2024-01-16T17:38:17.195Z,94669.38
2024-01-16T17:41:23.511Z,94662.16
2024-01-16T17:44:28.010Z,94664.91
2024-01-16T17:47:32.021Z,94666.59
2024-01-16T17:50:38.593Z,94671.09
2024-01-16T17:53:42.060Z,94669.16
2024-01-16T17:56:49.466Z,94667.91
2024-01-16T17:59:53.473Z,94675.38
2024-01-16T18:03:05.961Z,94682.34
2024-01-16T18:06:09.497Z,94681.81
2024-01-16T18:09:13.464Z,94690.03
2024-01-16T18:12:17.088Z,94691.47
2024-01-16T18:15:21.188Z,94699.41
2024-01-16T18:18:26.435Z,94702.88
2024-01-16T18:21:30.526Z,94696.09
2024-01-16T18:24:36.397Z,94705.38
2024-01-16T18:27:40.575Z,94696.47
2024-01-16T18:30:44.325Z,94699.91
2024-01-16T18:33:47.926Z,94698.94
2024-01-16T18:36:53.609Z,94715.31
2024-01-16T18:39:59.276Z,94707.09
2024-01-16T18:43:02.877Z,94707.06
2024-01-16T18:46:06.941Z,94713.50
2024-01-16T18:49:10.739Z,94714.97
2024-01-16T18:52:14.757Z,94720.16
2024-01-16T18:55:18.474Z,94716.38
2024-01-16T18:58:25.548Z,94720.41
2024-01-16T19:01:30.726Z,94714.22
2024-01-16T19:04:34.631Z,94721.56
2024-01-16T19:07:39.828Z,94718.63
2024-01-16T19:10:43.580Z,94717.38
2024-01-16T19:13:46.553Z,94724.19
2024-01-16T19:16:51.183Z,94740.16
2024-01-16T19:19:54.427Z,94725.50
2024-01-16T19:22:58.127Z,94735.47
2024-01-16T19:26:02.921Z,94745.19
2024-01-16T19:29:09.873Z,94742.16
2024-01-16T19:32:14.669Z,94736.94
2024-01-16T19:35:18.995Z,94744.38
2024-01-16T19:38:24.271Z,94720.50
2024-01-16T19:41:28.027Z,94735.72
2024-01-16T19:44:31.764Z,94740.41
2024-01-16T19:47:43.953Z,94739.63
2024-01-16T19:50:48.075Z,94742.63
2024-01-16T19:53:51.796Z,94739.19
2024-01-16T19:56:55.585Z,94732.28
2024-01-16T20:00:00.658Z,94754.16
2024-01-16T20:03:08.818Z,94745.19
2024-01-16T20:06:15.390Z,94768.22
2024-01-16T20:09:20.488Z,94769.47
2024-01-16T20:12:35.902Z,94775.84
2024-01-16T20:15:44.329Z,94782.31
2024-01-16T20:18:50.063Z,94790.06
2024-01-16T20:21:54.393Z,94784.25
2024-01-16T20:24:58.983Z,94778.28
2024-01-16T20:28:05.933Z,94789.44
2024-01-16T20:31:08.984Z,94801.38
2024-01-16T20:34:13.848Z,94799.66
2024-01-16T20:37:18.088Z,94789.34
2024-01-16T20:40:22.027Z,94790.06
2024-01-16T20:43:25.776Z,94796.47
2024-01-16T20:46:30.129Z,94791.25
2024-01-16T20:49:33.309Z,94789.25
2024-01-16T20:52:37.613Z,94794.72
2024-01-16T20:55:41.220Z,94782.84
2024-01-16T20:58:45.255Z,94790.31
2024-01-16T21:01:48.205Z,94793.25
2024-01-16T21:04:51.915Z,94797.13
2024-01-16T21:07:55.151Z,94798.91
2024-01-16T21:11:00.105Z,94795.19
2024-01-16T21:14:04.190Z,94796.75
2024-01-16T21:17:09.254Z,94795.19
2024-01-16T21:20:14.293Z,94800.97
2024-01-16T21:23:17.439Z,94803.66
2024-01-16T21:26:20.467Z,94804.59
2024-01-16T21:29:25.545Z,94815.09
2024-01-16T21:32:29.118Z,94812.69
2024-01-16T21:35:33.126Z,94803.31
2024-01-16T21:38:37.460Z,94800.91
2024-01-16T21:41:42.585Z,94804.31
2024-01-16T21:44:49.628Z,94804.00
2024-01-16T21:47:53.718Z,94807.06
2024-01-16T21:50:58.937Z,94809.34
2024-01-16T21:54:03.820Z,94806.47
2024-01-16T21:57:07.712Z,94804.75
2024-01-16T22:00:14.026Z,94809.72
2024-01-16T22:03:17.636Z,94805.56
2024-01-16T22:06:22.327Z,94809.63
2024-01-16T22:09:29.243Z,94813.44
2024-01-16T22:12:33.303Z,94820.38
2024-01-16T22:15:36.809Z,94809.97
2024-01-16T22:18:40.048Z,94812.09
2024-01-16T22:21:43.097Z,94819.22
2024-01-16T22:24:46.737Z,94829.50
2024-01-16T22:27:50.393Z,94826.84
2024-01-16T22:30:54.048Z,94817.66
2024-01-16T22:33:58.667Z,94824.97
2024-01-16T22:37:02.025Z,94825.50
2024-01-16T22:40:06.104Z,94835.28
2024-01-16T22:43:09.699Z,94834.41
2024-01-16T22:46:13.257Z,94836.34
2024-01-16T22:49:16.683Z,94826.53
2024-01-16T22:52:19.659Z,94838.88
2024-01-16T22:55:23.659Z,94833.78
2024-01-16T22:58:27.473Z,94845.28
2024-01-16T23:01:31.398Z,94847.84
2024-01-16T23:04:34.938Z,94855.22
2024-01-16T23:07:38.911Z,94853.91
2024-01-16T23:10:43.034Z,94859.75
2024-01-16T23:13:46.623Z,94863.22
2024-01-16T23:16:50.436Z,94865.41
2024-01-16T23:19:54.177Z,94877.25
2024-01-16T23:22:58.048Z,94871.53
2024-01-16T23:26:01.984Z,94876.31
2024-01-16T23:29:04.936Z,94867.63
2024-01-16T23:32:09.370Z,94870.25
2024-01-16T23:35:12.764Z,94885.13
2024-01-16T23:38:18.371Z,94883.31
2024-01-16T23:41:21.293Z,94879.84
2024-01-16T23:44:27.209Z,94899.50
2024-01-16T23:47:30.265Z,94896.38
2024-01-16T23:50:34.626Z,94921.53
2024-01-16T23:53:37.693Z,94897.84
2024-01-16T23:56:41.921Z,94913.56
2024-01-16T23:59:45.020Z,94914.72
